createdAt,value
2023-12-15T00:01:19.132Z,97470.80
2023-12-15T00:03:47.376Z,97467.80
2023-12-15T00:06:15.743Z,97466.00
2023-12-15T00:08:44.360Z,97471.40
2023-12-15T00:11:13.348Z,97468.60
2023-12-15T00:13:42.709Z,97474.00
2023-12-15T00:16:10.951Z,97484.20
2023-12-15T00:18:39.432Z,97480.80
2023-12-15T00:21:08.179Z,97486.40
2023-12-15T00:23:36.449Z,97484.60
2023-12-15T00:26:04.973Z,97495.40
2023-12-15T00:28:33.192Z,97498.60
2023-12-15T00:31:01.671Z,97501.40
2023-12-15T00:33:30.093Z,97503.60
2023-12-15T00:36:00.578Z,97510.80
2023-12-15T00:38:28.829Z,97501.00
2023-12-15T00:40:56.951Z,97513.60
2023-12-15T00:43:25.108Z,97524.80
2023-12-15T00:45:53.674Z,97525.40
2023-12-15T00:48:22.127Z,97531.60
2023-12-15T00:50:50.627Z,97534.60
2023-12-15T00:53:19.188Z,97532.40
2023-12-15T00:55:48.129Z,97539.20
2023-12-15T00:58:16.353Z,97542.00
2023-12-15T01:00:44.623Z,97542.60
2023-12-15T01:03:12.866Z,97542.60
2023-12-15T01:05:41.322Z,97541.60
2023-12-15T01:08:09.631Z,97548.00
2023-12-15T01:10:38.013Z,97546.80
2023-12-15T01:13:06.246Z,97552.00
2023-12-15T01:15:38.760Z,97554.60
2023-12-15T01:18:07.135Z,97549.00
2023-12-15T01:20:35.587Z,97553.40
2023-12-15T01:23:04.866Z,97558.40
2023-12-15T01:25:33.059Z,97562.00
2023-12-15T01:28:01.473Z,97569.40
2023-12-15T01:30:29.751Z,97568.60
2023-12-15T01:32:58.019Z,97569.00
2023-12-15T01:35:26.448Z,97579.00
2023-12-15T01:37:54.883Z,97585.60
2023-12-15T01:40:23.093Z,97588.40
2023-12-15T01:42:51.352Z,97595.40
2023-12-15T01:45:19.649Z,97592.20
2023-12-15T01:47:47.960Z,97598.40
2023-12-15T01:50:16.541Z,97601.20
2023-12-15T01:52:45.004Z,97600.20
2023-12-15T01:55:13.211Z,97608.00
2023-12-15T01:57:41.681Z,97609.60
2023-12-15T02:00:12.963Z,97613.20
2023-12-15T02:02:41.248Z,97611.20
2023-12-15T02:05:09.616Z,97609.60
2023-12-15T02:07:38.421Z,97609.20
2023-12-15T02:10:07.321Z,97610.80
2023-12-15T02:12:35.582Z,97609.80
2023-12-15T02:15:04.164Z,97610.00
2023-12-15T02:17:32.536Z,97616.80
2023-12-15T02:20:00.980Z,97620.80
2023-12-15T02:22:29.456Z,97622.60
2023-12-15T02:24:57.746Z,97630.60
2023-12-15T02:27:25.940Z,97637.40
2023-12-15T02:29:58.120Z,97637.00
2023-12-15T02:32:28.270Z,97638.60
2023-12-15T02:34:57.695Z,97640.20
2023-12-15T02:37:25.907Z,97644.80
2023-12-15T02:39:54.022Z,97642.40
2023-12-15T02:42:22.430Z,97649.00
2023-12-15T02:44:50.744Z,97654.00
2023-12-15T02:47:19.009Z,97660.00
2023-12-15T02:49:47.414Z,97663.00
2023-12-15T02:52:15.769Z,97663.60
2023-12-15T02:54:44.122Z,97663.80
2023-12-15T02:57:12.342Z,97669.80
2023-12-15T02:59:40.511Z,97673.40
2023-12-15T03:02:08.679Z,97673.40
2023-12-15T03:04:36.966Z,97674.40
2023-12-15T03:07:05.297Z,97681.00
2023-12-15T03:09:33.605Z,97685.00
2023-12-15T03:12:01.891Z,97693.20
2023-12-15T03:14:30.394Z,97705.60
2023-12-15T03:16:58.941Z,97705.00
2023-12-15T03:19:27.175Z,97708.60
2023-12-15T03:21:55.589Z,97710.80
2023-12-15T03:24:23.915Z,97711.80
2023-12-15T03:26:52.690Z,97715.00
2023-12-15T03:29:22.678Z,97722.00
2023-12-15T03:31:51.288Z,97718.80
2023-12-15T03:34:19.873Z,97724.20
2023-12-15T03:36:50.062Z,97727.80
2023-12-15T03:39:18.387Z,97730.00
2023-12-15T03:41:46.469Z,97731.00
2023-12-15T03:44:14.705Z,97733.80
2023-12-15T03:46:42.945Z,97738.80
2023-12-15T03:49:11.197Z,97740.40
2023-12-15T03:51:39.510Z,97738.60
2023-12-15T03:54:07.678Z,97740.60
2023-12-15T03:56:36.102Z,97749.40
2023-12-15T03:59:04.277Z,97747.20
2023-12-15T04:01:32.486Z,97748.80
2023-12-15T04:04:00.760Z,97749.60
2023-12-15T04:06:29.228Z,97749.40
2023-12-15T04:08:57.436Z,97754.00
2023-12-15T04:11:25.715Z,97749.20
2023-12-15T04:13:53.903Z,97749.00
2023-12-15T04:16:22.116Z,97750.00
2023-12-15T04:18:50.689Z,97750.40
2023-12-15T04:21:19.008Z,97765.00
2023-12-15T04:23:47.173Z,97764.20
2023-12-15T04:26:15.387Z,97779.80
2023-12-15T04:28:46.809Z,97791.00
2023-12-15T04:31:16.527Z,97798.80
2023-12-15T04:33:44.690Z,97803.20
2023-12-15T04:36:12.935Z,97808.40
2023-12-15T04:38:41.043Z,97812.60
2023-12-15T04:41:21.078Z,97816.80
2023-12-15T04:43:51.900Z,97824.60
2023-12-15T04:46:27.233Z,97830.80
2023-12-15T04:48:56.817Z,97828.60
2023-12-15T04:51:25.085Z,97839.40
2023-12-15T04:53:53.282Z,97839.00
2023-12-15T04:56:21.468Z,97846.60
2023-12-15T04:58:49.687Z,97850.20
2023-12-15T05:01:17.906Z,97858.80
2023-12-15T05:03:46.296Z,97864.00
2023-12-15T05:06:22.377Z,97876.00
2023-12-15T05:08:53.469Z,97873.00
2023-12-15T05:11:21.746Z,97877.20
2023-12-15T05:13:49.999Z,97886.20
2023-12-15T05:16:18.265Z,97884.20
2023-12-15T05:18:46.525Z,97892.20
2023-12-15T05:21:14.927Z,97899.60
2023-12-15T05:23:43.107Z,97908.40
2023-12-15T05:26:13.329Z,97909.80
2023-12-15T05:28:41.599Z,97921.40
2023-12-15T05:31:09.698Z,97918.60
2023-12-15T05:33:37.846Z,97927.40
2023-12-15T05:36:06.307Z,97933.40
2023-12-15T05:38:34.720Z,97929.60
2023-12-15T05:41:03.117Z,97935.80
2023-12-15T05:43:31.251Z,97938.00
2023-12-15T05:45:59.358Z,97945.00
2023-12-15T05:48:27.678Z,97946.40
2023-12-15T05:50:56.036Z,97948.80
2023-12-15T05:53:24.297Z,97952.40
2023-12-15T05:55:53.858Z,97959.00
2023-12-15T05:58:22.012Z,97962.80
2023-12-15T06:06:35.615Z,97979.60
2023-12-15T06:09:03.925Z,97983.40
2023-12-15T06:11:32.248Z,97984.00
2023-12-15T06:14:00.509Z,97985.40
2023-12-15T06:16:28.696Z,97984.60
2023-12-15T06:18:56.915Z,97987.40
2023-12-15T06:21:26.391Z,97990.60
2023-12-15T06:23:55.423Z,97987.60
2023-12-15T06:26:25.053Z,97992.80
2023-12-15T06:28:55.180Z,97989.80
2023-12-15T06:31:23.658Z,97994.80
2023-12-15T06:33:52.131Z,98000.20
2023-12-15T06:36:23.981Z,98004.60
2023-12-15T06:38:53.166Z,98010.20
2023-12-15T06:41:22.289Z,98016.80
2023-12-15T06:43:50.373Z,98023.00
2023-12-15T06:46:18.350Z,98029.00
2023-12-15T06:48:46.854Z,98030.40
2023-12-15T06:51:15.590Z,98030.40
2023-12-15T06:53:43.803Z,98036.60
2023-12-15T06:56:12.101Z,98044.00
2023-12-15T06:58:40.021Z,98043.80
2023-12-15T07:01:08.134Z,98052.20
2023-12-15T07:03:36.975Z,98052.80
2023-12-15T07:06:06.630Z,98055.60
2023-12-15T07:08:34.865Z,98059.00
2023-12-15T07:11:02.932Z,98069.20
2023-12-15T07:13:31.225Z,98069.20
2023-12-15T07:16:02.293Z,98070.20
2023-12-15T07:18:34.128Z,98074.60
2023-12-15T07:21:02.794Z,98078.20
2023-12-15T07:23:31.441Z,98077.60
2023-12-15T07:25:59.672Z,98073.60
2023-12-15T07:28:27.935Z,98077.40
2023-12-15T07:30:56.161Z,98077.80
2023-12-15T07:33:24.485Z,98091.40
2023-12-15T07:35:52.639Z,98102.00
2023-12-15T07:38:20.710Z,98110.40
2023-12-15T07:40:55.703Z,98115.80
2023-12-15T07:43:24.133Z,98124.60
2023-12-15T07:45:52.272Z,98121.60
2023-12-15T07:48:23.155Z,98124.60
2023-12-15T07:50:51.728Z,98126.00
2023-12-15T07:53:19.816Z,98130.60
2023-12-15T07:55:48.032Z,98137.40
2023-12-15T07:58:16.135Z,98145.80
2023-12-15T08:00:44.274Z,98153.60
2023-12-15T08:03:12.332Z,98150.20
2023-12-15T08:05:40.664Z,98159.80
2023-12-15T08:08:08.829Z,98152.60
2023-12-15T08:10:37.027Z,98156.80
2023-12-15T08:13:05.184Z,98159.80
2023-12-15T08:15:33.745Z,98160.80
2023-12-15T08:18:13.715Z,98165.80
2023-12-15T08:20:42.263Z,98173.60
2023-12-15T08:23:10.565Z,98175.80
2023-12-15T08:25:41.508Z,98172.40
2023-12-15T08:28:12.648Z,98175.20
2023-12-15T08:30:40.717Z,98177.40
2023-12-15T08:36:28.404Z,98179.20
2023-12-15T08:38:56.764Z,98178.60
2023-12-15T08:41:25.024Z,98179.60
2023-12-15T08:43:53.241Z,98178.60
2023-12-15T08:46:23.963Z,98182.80
2023-12-15T08:48:52.582Z,98182.80
2023-12-15T08:51:20.868Z,98186.40
2023-12-15T08:53:49.146Z,98186.40
2023-12-15T08:56:17.339Z,98193.20
2023-12-15T08:58:46.828Z,98193.60
2023-12-15T09:01:14.914Z,98200.00
2023-12-15T09:03:42.925Z,98194.60
2023-12-15T09:06:25.693Z,98195.00
2023-12-15T09:08:57.349Z,98191.40
2023-12-15T09:11:25.653Z,98196.00
2023-12-15T09:13:53.848Z,98191.40
2023-12-15T09:16:24.852Z,98189.80
2023-12-15T09:18:56.250Z,98193.60
2023-12-15T09:21:27.542Z,98197.20
2023-12-15T09:23:58.970Z,98205.80
2023-12-15T09:26:30.201Z,98207.60
2023-12-15T09:29:03.905Z,98205.00
2023-12-15T09:31:36.821Z,98205.40
2023-12-15T09:34:05.882Z,98201.40
2023-12-15T09:36:48.057Z,98203.00
2023-12-15T09:39:32.308Z,98198.20
2023-12-15T09:42:05.403Z,98206.40
2023-12-15T09:44:33.544Z,98208.80
2023-12-15T09:47:05.669Z,98209.80
2023-12-15T09:49:38.513Z,98201.40
2023-12-15T09:52:06.539Z,98199.60
2023-12-15T09:54:35.769Z,98199.00
2023-12-15T09:57:04.288Z,98201.20
2023-12-15T09:59:32.875Z,98205.60
2023-12-15T10:02:01.249Z,98213.20
2023-12-15T10:04:31.783Z,98215.80
2023-12-15T10:07:02.379Z,98224.00
2023-12-15T10:09:30.623Z,98227.60
2023-12-15T10:11:58.742Z,98232.40
2023-12-15T10:14:29.526Z,98233.40
2023-12-15T10:16:57.648Z,98235.40
2023-12-15T10:19:27.961Z,98232.80
2023-12-15T10:22:10.324Z,98231.00
2023-12-15T10:24:49.215Z,98231.20
2023-12-15T10:27:27.902Z,98237.60
2023-12-15T10:29:59.136Z,98244.20
2023-12-15T10:32:30.236Z,98243.20
2023-12-15T10:35:14.223Z,98257.60
2023-12-15T10:37:44.161Z,98252.20
2023-12-15T10:40:13.961Z,98252.00
2023-12-15T10:42:42.744Z,98246.00
2023-12-15T10:45:11.380Z,98252.60
2023-12-15T10:47:39.484Z,98252.60
2023-12-15T10:50:09.339Z,98259.40
2023-12-15T10:52:37.884Z,98267.00
2023-12-15T10:55:08.050Z,98265.00
2023-12-15T10:57:36.161Z,98265.20
2023-12-15T11:00:06.071Z,98264.60
2023-12-15T11:02:34.843Z,98257.00
2023-12-15T11:05:02.918Z,98253.20
2023-12-15T11:07:30.869Z,98246.40
2023-12-15T11:10:03.644Z,98248.60
2023-12-15T11:12:40.140Z,98243.40
2023-12-15T11:15:11.915Z,98251.20
2023-12-15T11:17:42.233Z,98249.80
2023-12-15T11:20:13.014Z,98250.60
2023-12-15T11:23:01.381Z,98262.60
2023-12-15T11:25:32.852Z,98266.00
2023-12-15T11:28:12.804Z,98272.20
2023-12-15T11:30:42.530Z,98274.60
2023-12-15T11:33:25.915Z,98276.60
2023-12-15T11:35:54.340Z,98276.40
2023-12-15T11:38:22.412Z,98283.20
2023-12-15T11:40:50.476Z,98292.60
2023-12-15T11:43:19.228Z,98295.60
2023-12-15T11:45:49.948Z,98293.80
2023-12-15T11:48:18.146Z,98295.80
2023-12-15T11:50:47.595Z,98289.00
2023-12-15T11:53:15.645Z,98283.80
2023-12-15T11:55:45.901Z,98290.40
2023-12-15T11:58:17.084Z,98297.20
2023-12-15T12:00:45.407Z,98294.20
2023-12-15T12:03:14.727Z,98299.20
2023-12-15T12:05:45.618Z,98296.60
2023-12-15T12:08:14.024Z,98292.20
2023-12-15T12:10:42.355Z,98297.40
2023-12-15T12:13:11.773Z,98294.20
2023-12-15T12:15:54.129Z,98292.20
2023-12-15T12:18:26.401Z,98304.80
2023-12-15T12:20:58.309Z,98301.00
2023-12-15T12:23:38.608Z,98305.60
2023-12-15T12:26:11.023Z,98306.80
2023-12-15T12:28:41.397Z,98309.40
2023-12-15T12:31:09.489Z,98319.60
2023-12-15T12:33:41.461Z,98318.40
2023-12-15T12:36:09.598Z,98317.00
2023-12-15T12:38:37.852Z,98322.40
2023-12-15T12:41:07.933Z,98320.40
2023-12-15T12:43:36.208Z,98329.20
2023-12-15T12:46:05.539Z,98333.80
2023-12-15T12:48:33.802Z,98343.80
2023-12-15T12:51:02.207Z,98351.40
2023-12-15T12:53:30.590Z,98352.40
2023-12-15T12:55:58.594Z,98359.80
2023-12-15T12:58:27.970Z,98360.20
2023-12-15T13:00:56.057Z,98370.80
2023-12-15T13:03:24.144Z,98376.40
2023-12-15T13:05:52.515Z,98385.60
2023-12-15T13:08:22.030Z,98393.60
2023-12-15T13:10:51.014Z,98394.00
2023-12-15T13:13:19.040Z,98397.40
2023-12-15T13:15:48.163Z,98399.40
2023-12-15T13:18:17.479Z,98406.80
2023-12-15T13:20:50.162Z,98406.40
2023-12-15T13:23:24.429Z,98402.80
2023-12-15T13:25:56.415Z,98402.60
2023-12-15T13:28:30.885Z,98410.20
2023-12-15T13:31:02.604Z,98418.60
2023-12-15T13:33:31.090Z,98421.40
2023-12-15T13:36:09.873Z,98424.40
2023-12-15T13:38:42.756Z,98429.20
2023-12-15T13:41:17.822Z,98429.80
2023-12-15T13:43:46.094Z,98432.80
2023-12-15T13:46:14.102Z,98437.20
2023-12-15T13:48:42.451Z,98438.80
2023-12-15T13:51:10.679Z,98436.40
2023-12-15T13:53:38.871Z,98441.60
2023-12-15T13:56:07.886Z,98443.00
2023-12-15T13:58:36.286Z,98442.60
2023-12-15T14:01:05.233Z,98443.40
2023-12-15T14:03:33.610Z,98446.60
2023-12-15T14:06:02.270Z,98445.00
2023-12-15T14:08:30.875Z,98449.80
2023-12-15T14:11:01.788Z,98448.60
2023-12-15T14:13:33.186Z,98450.60
2023-12-15T14:16:08.425Z,98453.20
2023-12-15T14:18:39.864Z,98459.20
2023-12-15T14:21:15.172Z,98461.80
2023-12-15T14:23:46.334Z,98463.80
2023-12-15T14:26:14.799Z,98471.40
2023-12-15T14:28:46.507Z,98473.20
2023-12-15T14:31:15.226Z,98475.00
2023-12-15T14:33:43.631Z,98477.20
2023-12-15T14:36:12.028Z,98475.00
2023-12-15T14:38:42.627Z,98482.20
2023-12-15T14:41:11.748Z,98485.40
2023-12-15T14:43:40.016Z,98489.60
2023-12-15T14:46:08.189Z,98487.60
2023-12-15T14:48:37.505Z,98494.60
2023-12-15T14:51:06.045Z,98492.00
2023-12-15T14:53:36.727Z,98502.40
2023-12-15T14:56:07.791Z,98515.80
2023-12-15T14:58:37.980Z,98515.00
2023-12-15T15:01:06.750Z,98515.80
2023-12-15T15:03:35.500Z,98516.80
2023-12-15T15:06:04.966Z,98522.00
2023-12-15T15:08:34.765Z,98522.80
2023-12-15T15:11:03.347Z,98520.80
2023-12-15T15:13:31.507Z,98530.40
2023-12-15T15:16:00.609Z,98535.60
2023-12-15T15:18:28.876Z,98536.20
2023-12-15T15:20:57.303Z,98547.20
2023-12-15T15:23:25.441Z,98557.40
2023-12-15T15:25:53.616Z,98558.20
2023-12-15T15:28:21.856Z,98565.60
2023-12-15T15:30:50.131Z,98575.40
2023-12-15T15:33:18.319Z,98581.20
2023-12-15T15:35:46.543Z,98582.20
2023-12-15T15:38:14.755Z,98580.00
2023-12-15T15:40:42.905Z,98577.40
2023-12-15T15:43:11.093Z,98584.20
2023-12-15T15:45:39.340Z,98590.40
2023-12-15T15:48:08.490Z,98596.80
2023-12-15T15:50:36.873Z,98603.60
2023-12-15T15:53:05.526Z,98602.60
2023-12-15T15:55:33.688Z,98605.00
2023-12-15T15:58:01.804Z,98606.40
2023-12-15T16:00:29.936Z,98614.40
2023-12-15T16:03:10.843Z,98615.40
2023-12-15T16:10:20.507Z,98625.60
2023-12-15T16:12:48.675Z,98624.60
2023-12-15T16:18:28.851Z,98632.60
2023-12-15T16:21:59.320Z,98645.20
2023-12-15T16:24:29.452Z,98649.00
2023-12-15T16:27:01.564Z,98642.60
2023-12-15T16:29:31.885Z,98647.80
2023-12-15T16:32:04.882Z,98650.00
2023-12-15T16:34:34.371Z,98654.80
2023-12-15T16:37:07.492Z,98656.00
2023-12-15T16:46:52.497Z,98662.40
2023-12-15T16:49:20.686Z,98661.20
2023-12-15T16:51:49.881Z,98662.80
2023-12-15T16:54:18.050Z,98662.60
2023-12-15T16:56:53.047Z,98666.20
2023-12-15T16:59:27.321Z,98669.40
2023-12-15T17:01:55.996Z,98674.40
2023-12-15T17:04:24.341Z,98676.60
2023-12-15T17:06:53.882Z,98672.20
2023-12-15T17:09:22.284Z,98673.20
2023-12-15T17:11:51.125Z,98676.40
2023-12-15T17:14:19.779Z,98679.60
2023-12-15T17:16:47.923Z,98688.20
2023-12-15T17:19:20.579Z,98684.40
2023-12-15T17:21:48.716Z,98688.80
2023-12-15T17:24:18.744Z,98688.60
2023-12-15T17:26:50.070Z,98692.20
2023-12-15T17:29:18.175Z,98690.40
2023-12-15T17:31:48.123Z,98685.00
2023-12-15T17:34:16.825Z,98689.20
2023-12-15T17:36:45.041Z,98687.80
2023-12-15T17:39:13.320Z,98688.80
2023-12-15T17:41:41.510Z,98688.60
2023-12-15T17:44:09.693Z,98692.80
2023-12-15T17:46:37.946Z,98693.20
2023-12-15T17:49:09.551Z,98688.20
2023-12-15T17:51:38.627Z,98685.80
2023-12-15T17:54:06.701Z,98685.60
2023-12-15T17:56:34.969Z,98696.60
2023-12-15T17:59:06.010Z,98699.60
2023-12-15T18:01:34.254Z,98707.60
2023-12-15T18:04:02.791Z,98711.80
2023-12-15T18:06:31.253Z,98720.20
2023-12-15T18:09:05.576Z,98725.20
2023-12-15T18:11:33.823Z,98733.40
2023-12-15T18:14:03.021Z,98745.40
2023-12-15T18:16:31.065Z,98745.80
2023-12-15T18:19:06.045Z,98743.00
2023-12-15T18:21:43.781Z,98745.60
2023-12-15T18:24:12.089Z,98740.60
2023-12-15T18:26:45.565Z,98745.20
2023-12-15T18:29:18.692Z,98741.00
2023-12-15T18:31:47.589Z,98747.60
2023-12-15T18:34:17.124Z,98747.40
2023-12-15T18:36:45.366Z,98749.80
2023-12-15T18:39:54.797Z,98754.40
2023-12-15T18:43:09.101Z,98760.60
2023-12-15T18:45:47.070Z,98760.20
2023-12-15T18:48:18.026Z,98755.40
2023-12-15T18:50:46.249Z,98757.60
2023-12-15T18:53:14.335Z,98764.00
2023-12-15T18:55:44.236Z,98761.20
2023-12-15T18:58:14.352Z,98773.00
2023-12-15T19:00:44.329Z,98776.80
2023-12-15T19:03:12.689Z,98781.20
2023-12-15T19:05:41.261Z,98784.40
2023-12-15T19:08:11.929Z,98785.60
2023-12-15T19:10:40.330Z,98783.40
2023-12-15T19:13:08.483Z,98790.80
2023-12-15T19:15:40.680Z,98803.20
2023-12-15T19:18:17.005Z,98800.80
2023-12-15T19:20:50.623Z,98798.40
2023-12-15T19:23:22.812Z,98798.80
2023-12-15T19:25:51.168Z,98794.00
2023-12-15T19:28:22.164Z,98796.00
2023-12-15T19:30:53.358Z,98793.80
2023-12-15T19:33:23.736Z,98793.80
2023-12-15T19:35:52.034Z,98791.20
2023-12-15T19:38:20.010Z,98793.40
2023-12-15T19:40:48.378Z,98799.40
2023-12-15T19:43:25.269Z,98795.60
2023-12-15T19:45:59.917Z,98800.80
2023-12-15T19:48:32.428Z,98806.40
2023-12-15T19:51:00.500Z,98808.00
2023-12-15T19:53:29.722Z,98817.20
2023-12-15T19:56:00.281Z,98816.20
2023-12-15T19:58:28.419Z,98811.60
2023-12-15T20:00:56.755Z,98808.20
2023-12-15T20:03:26.869Z,98808.20
2023-12-15T20:05:55.031Z,98802.40
2023-12-15T20:08:23.363Z,98802.60
2023-12-15T20:10:51.669Z,98807.40
2023-12-15T20:13:19.826Z,98808.80
2023-12-15T20:15:50.638Z,98812.60
2023-12-15T20:18:19.494Z,98818.20
2023-12-15T20:21:02.088Z,98812.00
2023-12-15T20:23:38.955Z,98809.00
2023-12-15T20:26:12.743Z,98811.80
2023-12-15T20:28:40.845Z,98814.80
2023-12-15T20:31:09.527Z,98815.40
2023-12-15T20:33:42.921Z,98818.40
2023-12-15T20:36:11.309Z,98818.80
2023-12-15T20:38:51.812Z,98822.00
2023-12-15T20:41:51.281Z,98831.40
2023-12-15T20:44:22.704Z,98834.00
2023-12-15T20:46:53.289Z,98838.80
2023-12-15T20:52:20.746Z,98842.20
2023-12-15T20:54:53.725Z,98849.20
2023-12-15T20:57:33.097Z,98856.20
2023-12-15T21:00:07.011Z,98858.20
2023-12-15T21:02:35.151Z,98852.60
2023-12-15T21:05:08.778Z,98858.80
2023-12-15T21:07:38.237Z,98861.40
2023-12-15T21:10:06.982Z,98863.40
2023-12-15T21:12:41.231Z,98865.40
2023-12-15T21:15:10.986Z,98857.00
2023-12-15T21:17:39.646Z,98860.60
2023-12-15T21:20:11.977Z,98870.60
2023-12-15T21:22:41.686Z,98868.60
2023-12-15T21:25:09.775Z,98867.80
2023-12-15T21:27:38.160Z,98863.40
2023-12-15T21:30:08.516Z,98866.20
2023-12-15T21:32:36.781Z,98872.20
2023-12-15T21:35:05.242Z,98873.00
2023-12-15T21:37:36.599Z,98863.80
2023-12-15T21:40:05.893Z,98865.60
2023-12-15T21:42:34.226Z,98871.80
2023-12-15T21:45:02.254Z,98876.80
2023-12-15T21:47:31.128Z,98882.80
2023-12-15T21:50:01.098Z,98874.80
2023-12-15T21:52:34.197Z,98884.20
2023-12-15T21:55:02.577Z,98877.80
2023-12-15T21:57:30.793Z,98886.80
2023-12-15T21:59:58.848Z,98883.80
2023-12-15T22:02:27.253Z,98882.20
2023-12-15T22:04:55.228Z,98883.80
2023-12-15T22:07:23.511Z,98892.40
2023-12-15T22:09:51.553Z,98886.40
2023-12-15T22:12:19.571Z,98885.80
2023-12-15T22:14:47.784Z,98890.40
2023-12-15T22:17:15.902Z,98901.20
2023-12-15T22:19:44.286Z,98903.20
2023-12-15T22:22:12.402Z,98899.20
2023-12-15T22:24:48.176Z,98896.60
2023-12-15T22:27:16.429Z,98891.40
2023-12-15T22:29:44.544Z,98898.60
2023-12-15T22:32:12.493Z,98906.40
2023-12-15T22:34:40.703Z,98905.40
2023-12-15T22:37:10.417Z,98905.80
2023-12-15T22:39:38.415Z,98905.80
2023-12-15T22:42:09.908Z,98908.20
2023-12-15T22:44:38.196Z,98904.40
2023-12-15T22:47:07.538Z,98905.00
2023-12-15T22:49:37.411Z,98906.00
2023-12-15T22:52:06.158Z,98901.40
2023-12-15T22:54:34.227Z,98896.60
2023-12-15T22:57:02.365Z,98903.40
2023-12-15T22:59:30.427Z,98897.60
2023-12-15T23:01:58.740Z,98901.40
2023-12-15T23:04:27.503Z,98896.40
2023-12-15T23:06:55.630Z,98899.80
2023-12-15T23:09:23.609Z,98901.60
2023-12-15T23:11:51.721Z,98900.20
2023-12-15T23:14:19.880Z,98907.40
2023-12-15T23:16:48.652Z,98914.20
2023-12-15T23:19:16.815Z,98917.40
2023-12-15T23:21:46.959Z,98908.00
2023-12-15T23:24:14.936Z,98913.80
2023-12-15T23:26:43.040Z,98912.80
2023-12-15T23:29:11.171Z,98906.40
2023-12-15T23:31:39.989Z,98905.40
2023-12-15T23:34:08.297Z,98915.40
2023-12-15T23:36:37.429Z,98916.80
2023-12-15T23:39:07.093Z,98923.20
2023-12-15T23:41:35.418Z,98924.60
2023-12-15T23:44:03.538Z,98929.60
2023-12-15T23:46:32.343Z,98923.80
2023-12-15T23:49:00.772Z,98928.40
2023-12-15T23:51:28.985Z,98932.60
2023-12-15T23:53:57.136Z,98933.80
2023-12-15T23:56:25.168Z,98940.20
2023-12-15T23:58:53.319Z,98937.20
